Time;durP1;ratioP1;P1;durP2;ratioP2;P2;SDS_P1;SDS_P2;PMS_P1;PMS_P2;Temp;Humidity;BMP_temperature;BMP_pressure;BME280_temperature;BME280_humidity;BME280_pressure;Samples;Min_cycle;Max_cycle;Signal;HPM_P1;HPM_P2
2021/12/28 00:02:08;;;;;;;23.38;11.48;;;;;;;4.80;100.00;99197.75;5232210;28;20079;-86
2021/12/28 00:04:39;;;;;;;24.40;10.77;;;;;;;5.74;100.00;99307.41;5231289;28;20406;-86
2021/12/28 00:07:12;;;;;;;41.22;10.52;;;;;;;5.88;100.00;99329.16;5230670;28;20028;-86
2021/12/28 00:09:43;;;;;;;24.45;8.35;;;;;;;6.03;100.00;99334.59;5230411;28;20391;-86
2021/12/28 00:12:13;;;;;;;21.13;9.48;;;;;;;6.73;100.00;99489.50;5230581;28;20082;-86
2021/12/28 00:15:01;;;;;;;28.13;10.15;;;;;;;4.93;100.00;99160.66;5230612;28;20044;-86
2021/12/28 00:20:21;;;;;;;;;;;;;;;6.74;100.00;99426.72;5232392;28;20043;-86
2021/12/28 00:22:52;;;;;;;13.48;9.35;;;;;;;6.62;100.00;99407.41;5230635;28;19912;-86
2021/12/28 00:25:22;;;;;;;26.55;9.23;;;;;;;6.37;100.00;99377.84;5231682;28;20025;-87
2021/12/28 00:27:53;;;;;;;31.35;11.38;;;;;;;6.63;100.00;99408.22;5230182;28;20029;-87
2021/12/28 00:30:24;;;;;;;32.72;10.50;;;;;;;6.68;100.00;99411.69;5229691;28;20029;-86
2021/12/28 00:32:56;;;;;;;16.50;10.35;;;;;;;6.74;100.00;99426.72;5230149;28;20036;-87
2021/12/28 00:35:30;;;;;;;40.83;11.43;;;;;;;6.85;100.00;99410.66;5231548;28;20394;-86
2021/12/28 00:38:02;;;;;;;33.20;11.38;;;;;;;6.76;100.00;99380.84;5229677;28;20122;-86
2021/12/28 00:40:33;;;;;;;21.38;9.80;;;;;;;7.03;100.00;99415.50;5229598;28;20029;-87
2021/12/28 00:43:04;;;;;;;28.13;10.82;;;;;;;7.05;100.00;99405.28;5230055;28;20029;-87
2021/12/28 00:45:35;;;;;;;41.90;10.45;;;;;;;7.05;100.00;99386.50;5229844;28;20021;-87
2021/12/28 00:48:06;;;;;;;25.80;10.07;;;;;;;7.24;100.00;99408.22;5229628;28;20032;-86
2021/12/28 00:50:37;;;;;;;24.95;10.60;;;;;;;7.28;100.00;99410.13;5230475;28;20059;-87
2021/12/28 00:53:08;;;;;;;29.10;11.07;;;;;;;7.35;100.00;99407.97;5230003;28;20028;-86
2021/12/28 00:55:39;;;;;;;12.75;9.13;;;;;;;7.41;100.00;99401.53;5229192;28;20028;-87
2021/12/28 00:58:09;;;;;;;23.90;8.77;;;;;;;7.36;100.00;99390.78;5230566;28;20040;-86
2021/12/28 01:00:40;;;;;;;28.65;9.70;;;;;;;7.30;100.00;99373.06;5229513;28;20028;-87
2021/12/28 01:03:12;;;;;;;27.45;10.98;;;;;;;7.53;100.00;99389.66;5229242;28;20119;-87
2021/12/28 01:05:44;;;;;;;29.48;9.57;;;;;;;7.54;100.00;99397.47;5235066;28;20077;-87
2021/12/28 01:08:15;;;;;;;29.60;11.02;;;;;;;7.59;100.00;99384.03;5232926;28;20021;-87
2021/12/28 01:10:50;;;;;;;36.95;11.25;;;;;;;7.64;100.00;99381.31;5231089;28;20075;-87
2021/12/28 01:13:21;;;;;;;16.52;8.82;;;;;;;7.66;100.00;99373.00;5232001;28;20033;-87
2021/12/28 01:15:53;;;;;;;32.38;12.18;;;;;;;7.67;100.00;99361.97;5231038;28;20025;-87
2021/12/28 01:18:23;;;;;;;22.50;8.43;;;;;;;7.67;100.00;99375.41;5230275;28;20017;-87
2021/12/28 01:20:55;;;;;;;37.25;10.77;;;;;;;7.65;100.00;99363.31;5230117;28;20025;-88
2021/12/28 01:23:26;;;;;;;34.13;12.23;;;;;;;7.37;100.00;99333.31;5230005;28;20550;-88
2021/12/28 01:25:58;;;;;;;28.40;12.32;;;;;;;7.48;100.00;99341.34;5230957;28;20106;-88
2021/12/28 01:28:28;;;;;;;31.85;8.75;;;;;;;7.51;100.00;99341.59;5228472;28;20021;-87
2021/12/28 01:30:59;;;;;;;34.30;10.57;;;;;;;7.73;100.00;99362.78;5228641;28;20036;-88
2021/12/28 01:33:30;;;;;;;30.48;10.32;;;;;;;7.36;100.00;99304.84;5228619;28;20032;-87
2021/12/28 01:36:01;;;;;;;17.70;8.85;;;;;;;7.73;100.00;99358.22;5228603;28;20063;-88
2021/12/28 01:38:32;;;;;;;23.95;10.77;;;;;;;7.66;100.00;99330.00;5228440;28;20028;-87
2021/12/28 01:41:03;;;;;;;19.60;9.80;;;;;;;7.77;100.00;99343.16;5228859;28;20033;-88
2021/12/28 01:43:34;;;;;;;21.38;9.07;;;;;;;7.92;100.00;99361.09;5228781;28;20029;-88
2021/12/28 01:46:05;;;;;;;31.63;9.43;;;;;;;7.96;100.00;99364.84;5228673;28;20078;-88
2021/12/28 01:48:40;;;;;;;21.13;9.27;;;;;;;7.99;100.00;99375.03;5228487;28;20120;-87
2021/12/28 01:51:14;;;;;;;21.95;8.70;;;;;;;8.00;100.00;99357.84;5228566;28;20029;-88
2021/12/28 01:53:46;;;;;;;20.90;9.20;;;;;;;7.83;100.00;99338.53;5228743;28;20033;-88
2021/12/28 01:56:21;;;;;;;14.30;8.43;;;;;;;7.79;100.00;99332.13;5228361;28;20029;-88
2021/12/28 01:58:52;;;;;;;20.20;8.60;;;;;;;7.91;100.00;99358.66;5228144;28;20028;-89
2021/12/28 02:01:25;;;;;;;15.00;6.97;;;;;;;7.78;100.00;99327.81;5228222;28;20478;-88
2021/12/28 02:03:56;;;;;;;23.25;9.63;;;;;;;8.06;100.00;99358.63;5228397;28;20056;-88
2021/12/28 02:06:26;;;;;;;12.23;7.88;;;;;;;8.15;100.00;99348.88;5230011;28;20029;-88
2021/12/28 02:08:57;;;;;;;13.30;7.50;;;;;;;7.89;100.00;99305.19;5232177;28;20106;-88
2021/12/28 02:11:27;;;;;;;11.02;6.53;;;;;;;8.23;100.00;99339.44;5232395;28;20402;-88
2021/12/28 02:13:59;;;;;;;20.85;7.15;;;;;;;8.24;100.00;99344.53;5232540;28;20021;-88
2021/12/28 02:16:30;;;;;;;13.45;6.50;;;;;;;8.24;100.00;99343.72;5232139;28;20234;-88
2021/12/28 02:19:02;;;;;;;18.45;9.77;;;;;;;8.22;100.00;99346.69;5232629;28;20558;-88
2021/12/28 02:21:34;;;;;;;16.25;8.10;;;;;;;8.23;100.00;99337.53;5232458;28;20506;-88
2021/12/28 02:24:07;;;;;;;27.63;7.63;;;;;;;8.18;100.00;99329.50;5232002;28;20025;-88
2021/12/28 02:26:37;;;;;;;9.10;5.88;;;;;;;8.03;100.00;99298.13;5231981;28;20036;-88
2021/12/28 02:29:08;;;;;;;42.65;10.07;;;;;;;8.25;100.00;99337.28;5232135;28;20021;-88
2021/12/28 02:31:39;;;;;;;16.80;5.97;;;;;;;8.22;100.00;99337.81;5231848;28;20036;-88
2021/12/28 02:34:09;;;;;;;19.95;6.53;;;;;;;8.21;100.00;99331.63;5233776;28;20024;-88
2021/12/28 02:36:40;;;;;;;22.60;7.88;;;;;;;8.26;100.00;99318.16;5232114;28;20041;-88
2021/12/28 02:39:10;;;;;;;28.02;7.45;;;;;;;8.19;100.00;99314.97;5232265;28;20032;-88
2021/12/28 02:41:41;;;;;;;17.92;7.63;;;;;;;8.11;100.00;99310.97;5232157;28;20102;-89
2021/12/28 02:44:11;;;;;;;15.00;7.13;;;;;;;7.73;100.00;99269.53;5232299;28;20048;-89
2021/12/28 02:46:42;;;;;;;21.00;7.05;;;;;;;7.63;100.00;99255.34;5233682;28;20106;-88
2021/12/28 02:49:12;;;;;;;36.15;7.60;;;;;;;8.02;100.00;99309.97;5232317;28;20029;-88
2021/12/28 02:51:42;;;;;;;15.00;7.28;;;;;;;7.96;100.00;99311.06;5233382;28;20025;-89
2021/12/28 02:54:13;;;;;;;15.50;6.95;;;;;;;7.46;100.00;99231.50;5233059;28;20036;-88
2021/12/28 02:56:43;;;;;;;8.45;6.75;;;;;;;7.99;100.00;99310.53;5231807;28;20033;-88
2021/12/28 02:59:14;;;;;;;11.20;6.43;;;;;;;8.09;100.00;99315.81;5233147;28;20146;-88
2021/12/28 03:01:44;;;;;;;9.05;4.80;;;;;;;7.79;100.00;99248.81;5231452;28;20024;-88
2021/12/28 03:04:15;;;;;;;20.13;7.75;;;;;;;8.02;100.00;99301.09;5231874;28;20049;-89
2021/12/28 03:06:45;;;;;;;13.32;6.53;;;;;;;8.08;100.00;99311.53;5231636;28;20021;-89
2021/12/28 03:09:20;;;;;;;17.40;6.40;;;;;;;8.07;100.00;99304.56;5231515;28;20028;-89
2021/12/28 03:11:51;;;;;;;11.05;4.22;;;;;;;7.96;100.00;99289.56;5231668;28;20059;-88
2021/12/28 03:14:21;;;;;;;14.07;4.40;;;;;;;8.24;100.00;99311.47;5231441;28;20021;-89
2021/12/28 03:16:52;;;;;;;12.85;6.70;;;;;;;8.24;100.00;99306.88;5232243;28;20037;-88
2021/12/28 03:19:22;;;;;;;21.23;6.97;;;;;;;8.09;100.00;99280.06;5231270;28;20028;-89
2021/12/28 03:21:53;;;;;;;4.28;3.88;;;;;;;8.10;100.00;99293.25;5232177;28;20403;-88
2021/12/28 03:24:24;;;;;;;11.00;4.07;;;;;;;8.14;100.00;99288.91;5232475;28;20398;-87
2021/12/28 03:26:55;;;;;;;15.40;5.28;;;;;;;8.22;100.00;99308.25;5231139;28;20020;-87
2021/12/28 03:29:25;;;;;;;13.40;4.35;;;;;;;8.12;100.00;99298.34;5232026;28;20021;-87
2021/12/28 03:31:56;;;;;;;6.75;5.03;;;;;;;7.94;100.00;99262.16;5231154;28;20475;-88
2021/12/28 03:34:26;;;;;;;5.30;4.15;;;;;;;7.70;100.00;99219.03;5231335;28;20036;-87
2021/12/28 03:36:57;;;;;;;16.05;6.03;;;;;;;8.01;100.00;99265.34;5231566;28;20021;-88
2021/12/28 03:39:27;;;;;;;9.38;5.75;;;;;;;8.01;100.00;99253.78;5231228;28;20020;-88
2021/12/28 03:41:58;;;;;;;9.52;5.82;;;;;;;7.90;100.00;99250.34;5232125;28;20033;-88
2021/12/28 03:44:28;;;;;;;7.93;4.53;;;;;;;8.03;100.00;99276.63;5230672;28;20116;-87
2021/12/28 03:46:59;;;;;;;14.88;7.63;;;;;;;8.06;100.00;99273.41;5230637;28;20107;-86
2021/12/28 03:49:29;;;;;;;6.85;5.30;;;;;;;8.23;100.00;99291.84;5231646;28;20100;-86
2021/12/28 03:52:01;;;;;;;9.38;4.25;;;;;;;8.22;100.00;99290.22;5230593;28;20037;-87
2021/12/28 03:54:32;;;;;;;8.13;5.88;;;;;;;8.02;100.00;99266.97;5231471;28;20032;-86
2021/12/28 03:57:04;;;;;;;21.00;4.75;;;;;;;8.14;100.00;99290.81;5230758;28;20021;-87
2021/12/28 03:59:34;;;;;;;9.88;4.43;;;;;;;8.24;100.00;99281.88;5230637;28;20021;-88
2021/12/28 04:02:05;;;;;;;14.82;5.72;;;;;;;8.24;100.00;99265.75;5230284;28;20441;-86
2021/12/28 04:04:36;;;;;;;7.78;3.83;;;;;;;8.17;100.00;99243.72;5230153;28;20035;-86
2021/12/28 04:07:09;;;;;;;8.10;3.28;;;;;;;8.08;100.00;99233.56;5231495;28;20021;-87
2021/12/28 04:10:15;;;;;;;7.45;4.07;;;;;;;8.25;100.00;99261.97;5229391;28;20047;-87
2021/12/28 04:12:36;;;;;;;7.18;5.25;;;;;;;8.16;100.00;99275.19;5225986;28;20404;-87
2021/12/28 04:15:10;;;;;;;7.45;4.07;;;;;;;7.80;100.00;99234.28;5229942;28;20025;-87
2021/12/28 04:17:41;;;;;;;5.43;3.13;;;;;;;8.16;100.00;99260.94;5230118;28;20460;-87
2021/12/28 04:20:16;;;;;;;8.98;3.15;;;;;;;7.99;100.00;99240.63;5229887;28;20501;-87
2021/12/28 04:22:46;;;;;;;10.70;4.40;;;;;;;7.99;100.00;99243.31;5230902;28;20033;-87
2021/12/28 04:25:17;;;;;;;5.65;4.53;;;;;;;8.02;100.00;99275.03;5233307;28;20422;-87
2021/12/28 04:27:48;;;;;;;8.38;4.50;;;;;;;8.05;100.00;99279.84;5234207;28;20032;-86
2021/12/28 04:30:18;;;;;;;4.72;3.20;;;;;;;7.80;100.00;99240.47;5233396;28;20033;-86
2021/12/28 04:32:49;;;;;;;10.30;4.78;;;;;;;7.57;100.00;99190.06;5233004;28;20107;-86
2021/12/28 04:35:19;;;;;;;6.05;4.35;;;;;;;7.98;100.00;99252.47;5233768;28;20033;-86
2021/12/28 04:37:50;;;;;;;13.88;5.18;;;;;;;8.20;100.00;99276.25;5231102;28;20426;-87
2021/12/28 04:40:22;;;;;;;5.82;3.00;;;;;;;7.98;100.00;99248.97;5230349;28;20044;-86
2021/12/28 04:42:53;;;;;;;14.35;5.43;;;;;;;8.04;100.00;99245.19;5230979;28;20037;-87
2021/12/28 04:45:23;;;;;;;7.05;3.88;;;;;;;7.78;100.00;99201.53;5230224;28;20029;-87
2021/12/28 04:47:54;;;;;;;3.17;2.67;;;;;;;7.95;100.00;99220.75;5231640;28;20020;-87
2021/12/28 04:50:24;;;;;;;5.75;2.85;;;;;;;8.11;100.00;99241.06;5229828;28;20033;-87
2021/12/28 04:52:57;;;;;;;15.30;4.07;;;;;;;8.17;100.00;99238.34;5230094;28;20028;-87
2021/12/28 04:55:28;;;;;;;4.25;3.25;;;;;;;8.08;100.00;99233.56;5229715;28;20075;-87
2021/12/28 04:57:58;;;;;;;4.82;3.38;;;;;;;8.14;100.00;99243.22;5230256;28;20425;-87
2021/12/28 05:00:29;;;;;;;8.27;2.83;;;;;;;8.09;100.00;99235.16;5230057;28;20107;-87
2021/12/28 05:02:59;;;;;;;9.82;3.50;;;;;;;7.63;100.00;99164.00;5229639;28;20024;-85
2021/12/28 05:05:30;;;;;;;7.88;4.10;;;;;;;8.23;100.00;99259.56;5230060;28;20036;-87
2021/12/28 05:08:03;;;;;;;6.55;3.60;;;;;;;7.84;100.00;99208.47;5240285;22;20050;-90
2021/12/28 05:10:34;;;;;;;10.90;3.88;;;;;;;7.97;100.00;99240.09;5200539;28;20026;-91
2021/12/28 05:13:04;;;;;;;5.55;3.88;;;;;;;8.07;100.00;99233.88;5210735;28;20037;-90
2021/12/28 05:15:35;;;;;;;10.10;4.28;;;;;;;8.12;100.00;99252.63;5213312;28;20055;-90
2021/12/28 05:18:05;;;;;;;7.15;4.43;;;;;;;7.91;100.00;99202.78;5212906;28;20028;-90
2021/12/28 05:20:36;;;;;;;12.13;3.88;;;;;;;7.63;100.00;99153.25;5214263;28;20033;-90
2021/12/28 05:23:07;;;;;;;3.60;3.22;;;;;;;7.83;100.00;99177.28;5215002;28;20025;-90
2021/12/28 05:25:38;;;;;;;5.85;3.33;;;;;;;7.78;100.00;99191.59;5213418;28;20029;-92
2021/12/28 05:28:08;;;;;;;3.65;2.80;;;;;;;8.30;100.00;99254.69;5213081;28;20109;-89
2021/12/28 05:30:39;;;;;;;2.92;2.72;;;;;;;7.91;100.00;99192.03;5214375;28;20523;-91
2021/12/28 05:33:10;;;;;;;4.72;2.55;;;;;;;8.04;100.00;99224.47;5213299;28;20038;-90
2021/12/28 05:35:40;;;;;;;6.22;3.55;;;;;;;8.34;100.00;99249.56;5213883;28;20033;-91
2021/12/28 05:38:12;;;;;;;4.95;2.38;;;;;;;8.28;100.00;99237.22;5214010;28;20025;-88
2021/12/28 05:40:43;;;;;;;3.10;2.90;;;;;;;7.67;100.00;99138.97;5215008;28;20025;-91
2021/12/28 05:43:14;;;;;;;3.28;3.00;;;;;;;8.11;100.00;99208.00;5218335;28;20032;-91
2021/12/28 05:45:44;;;;;;;3.58;3.38;;;;;;;8.08;100.00;99206.69;5202753;28;20053;-91
2021/12/28 05:48:15;;;;;;;3.17;2.97;;;;;;;8.32;100.00;99232.88;5213437;28;20033;-90
2021/12/28 05:50:45;;;;;;;3.78;3.03;;;;;;;7.61;100.00;99126.66;5216667;28;20030;-91
2021/12/28 05:53:16;;;;;;;4.18;2.85;;;;;;;7.88;100.00;99160.34;5217989;28;20084;-90
2021/12/28 05:55:46;;;;;;;3.78;3.00;;;;;;;8.11;100.00;99203.44;5217009;28;20479;-90
2021/12/28 05:58:17;;;;;;;3.72;2.67;;;;;;;8.28;100.00;99234.53;5214762;28;20519;-89
2021/12/28 06:00:47;;;;;;;3.15;2.95;;;;;;;8.07;100.00;99196.22;5198867;28;20085;-90
2021/12/28 06:03:18;;;;;;;13.48;3.33;;;;;;;7.88;100.00;99171.88;5197699;28;20037;-88
2021/12/28 06:05:48;;;;;;;3.25;3.05;;;;;;;8.05;100.00;99199.19;5197817;28;20034;-91
2021/12/28 06:08:19;;;;;;;3.78;2.97;;;;;;;8.24;100.00;99220.03;5197401;28;20198;-91
2021/12/28 06:10:49;;;;;;;3.80;3.00;;;;;;;7.94;100.00;99172.66;5195541;28;20041;-91
2021/12/28 06:13:20;;;;;;;3.45;2.50;;;;;;;8.24;100.00;99206.59;5198873;28;20026;-92
2021/12/28 06:15:50;;;;;;;4.95;3.35;;;;;;;7.69;100.00;99125.28;5196348;28;20025;-91
2021/12/28 06:18:21;;;;;;;6.07;2.50;;;;;;;7.62;100.00;99125.59;5197524;28;20029;-93
2021/12/28 06:20:51;;;;;;;3.00;2.80;;;;;;;8.22;100.00;99211.44;5194533;28;20057;-91
2021/12/28 06:23:22;;;;;;;3.45;3.15;;;;;;;7.73;100.00;99131.69;5195727;28;20018;-89
2021/12/28 06:25:53;;;;;;;7.70;3.85;;;;;;;8.26;100.00;99217.88;5196149;28;20052;-91
2021/12/28 06:28:23;;;;;;;4.82;3.63;;;;;;;7.93;100.00;99169.16;5196704;28;20072;-91
2021/12/28 06:30:54;;;;;;;3.17;2.70;;;;;;;8.29;100.00;99214.63;5196656;28;20105;-92
2021/12/28 06:33:25;;;;;;;6.15;4.28;;;;;;;7.23;100.00;99069.16;5196623;28;20639;-93
2021/12/28 06:35:56;;;;;;;9.23;4.05;;;;;;;7.80;100.00;99154.47;5195523;28;20474;-91
2021/12/28 06:38:26;;;;;;;8.30;3.55;;;;;;;7.77;100.00;99154.25;5195672;28;20022;-91
2021/12/28 06:40:57;;;;;;;2.97;2.88;;;;;;;7.75;100.00;99151.03;5195895;28;20018;-91
2021/12/28 06:43:27;;;;;;;55.47;52.22;;;;;;;8.32;100.00;99216.75;5198238;28;20487;-91
2021/12/28 06:45:58;;;;;;;3.97;3.78;;;;;;;8.09;100.00;99181.41;5197441;28;20034;-92
2021/12/28 06:48:28;;;;;;;4.90;3.30;;;;;;;7.82;100.00;99137.25;5197543;28;20033;-92
2021/12/28 06:50:59;;;;;;;4.72;2.75;;;;;;;6.37;100.00;98928.22;5196783;28;20033;-93
2021/12/28 06:53:29;;;;;;;5.20;3.03;;;;;;;6.45;100.00;98924.19;5195245;28;20045;-92
2021/12/28 06:56:00;;;;;;;2.75;2.55;;;;;;;6.26;100.00;98956.19;5196096;28;20090;-93
2021/12/28 06:58:31;;;;;;;6.38;4.00;;;;;;;8.30;100.00;99260.06;5196025;28;20025;-91
2021/12/28 07:01:02;;;;;;;2.58;2.47;;;;;;;6.93;100.00;99029.09;5197074;28;20037;-93
2021/12/28 07:03:33;;;;;;;6.35;3.13;;;;;;;7.05;100.00;99070.59;5195401;28;20021;-92
2021/12/28 07:06:03;;;;;;;4.30;3.30;;;;;;;6.13;100.00;98872.88;5196451;28;20048;-93
2021/12/28 07:08:34;;;;;;;8.68;3.72;;;;;;;7.41;100.00;99116.84;5197602;28;20068;-91
2021/12/28 07:11:05;;;;;;;3.10;2.90;;;;;;;6.62;100.00;98999.72;5196613;28;20037;-92
2021/12/28 07:13:35;;;;;;;3.25;3.05;;;;;;;7.07;100.00;99032.75;5196172;28;20030;-92
2021/12/28 07:16:06;;;;;;;4.03;3.00;;;;;;;6.20;100.00;98884.09;5195493;28;20029;-91
2021/12/28 07:18:36;;;;;;;3.88;3.53;;;;;;;7.73;100.00;99163.94;5195918;28;20108;-92
2021/12/28 07:21:11;;;;;;;3.42;3.22;;;;;;;6.57;100.00;98954.16;5196709;28;20041;-91
2021/12/28 07:23:42;;;;;;;3.72;3.58;;;;;;;7.58;100.00;99105.72;5196599;28;20722;-91
2021/12/28 07:26:12;;;;;;;4.55;4.22;;;;;;;8.29;100.00;99215.41;5197146;28;20025;-91
2021/12/28 07:28:42;;;;;;;6.07;3.30;;;;;;;7.35;100.00;99069.63;5200596;28;20514;-90
2021/12/28 07:31:13;;;;;;;3.35;3.10;;;;;;;6.27;100.00;98890.78;5206876;28;20014;-93
2021/12/28 07:33:43;;;;;;;2.90;2.80;;;;;;;6.91;100.00;99007.91;5212509;28;20238;-91
2021/12/28 07:36:14;;;;;;;3.88;3.60;;;;;;;8.32;100.00;99220.28;5211272;28;20030;-92
2021/12/28 07:38:44;;;;;;;3.80;3.55;;;;;;;7.79;100.00;99168.22;5213876;28;20013;-91
2021/12/28 07:41:15;;;;;;;3.95;3.53;;;;;;;7.44;100.00;99083.28;5197912;28;20033;-90
2021/12/28 07:43:45;;;;;;;3.83;3.58;;;;;;;8.35;100.00;99225.09;5205698;28;20061;-93
2021/12/28 07:46:16;;;;;;;3.58;3.38;;;;;;;8.02;100.00;99186.31;5200385;28;20026;-91
2021/12/28 07:48:46;;;;;;;2.95;2.70;;;;;;;8.38;100.00;99218.31;5196488;28;20026;-91
2021/12/28 07:51:17;;;;;;;5.28;3.10;;;;;;;7.49;100.00;99088.63;5196004;28;20049;-92
2021/12/28 07:53:48;;;;;;;4.25;3.67;;;;;;;7.27;100.00;99026.44;5195669;28;20029;-91
2021/12/28 07:56:18;;;;;;;3.85;3.60;;;;;;;8.42;100.00;99216.69;5196833;28;20549;-90
2021/12/28 07:58:49;;;;;;;4.55;4.25;;;;;;;8.32;100.00;99204.13;5206387;28;20094;-93
2021/12/28 08:01:19;;;;;;;3.17;3.08;;;;;;;7.15;100.00;99056.34;5208912;28;20527;-92
2021/12/28 08:03:50;;;;;;;4.53;4.15;;;;;;;7.64;100.00;99107.31;5206701;28;20082;-92
2021/12/28 08:06:20;;;;;;;4.93;4.35;;;;;;;6.86;100.00;98965.00;5196019;28;20092;-91
2021/12/28 08:08:51;;;;;;;3.85;3.55;;;;;;;8.01;100.00;99136.31;5196413;28;20036;-92
2021/12/28 08:11:22;;;;;;;3.55;3.35;;;;;;;8.35;100.00;99213.53;5196947;28;20028;-91
2021/12/28 08:13:54;;;;;;;4.47;4.28;;;;;;;7.60;100.00;99095.50;5196181;28;20113;-92
2021/12/28 08:16:25;;;;;;;3.95;3.60;;;;;;;7.33;100.00;99034.19;5195265;28;20042;-91
2021/12/28 08:18:56;;;;;;;4.63;4.32;;;;;;;7.98;100.00;99128.81;5196452;28;20021;-92
2021/12/28 08:21:26;;;;;;;5.32;4.80;;;;;;;7.40;100.00;99032.00;5194946;28;20036;-92
2021/12/28 08:23:57;;;;;;;3.58;3.38;;;;;;;7.11;100.00;98974.75;5195152;28;20033;-91
2021/12/28 08:26:27;;;;;;;4.30;4.03;;;;;;;7.99;100.00;99137.69;5194743;28;20026;-91
2021/12/28 08:28:58;;;;;;;4.35;4.15;;;;;;;7.98;100.00;99085.00;5194586;28;20072;-92
2021/12/28 08:31:29;;;;;;;4.18;3.88;;;;;;;6.66;100.00;98865.84;5195401;28;20022;-91
2021/12/28 08:34:00;;;;;;;3.92;3.63;;;;;;;7.09;100.00;98963.50;5195938;28;20018;-91
2021/12/28 08:36:30;;;;;;;4.25;4.05;;;;;;;7.52;100.00;99015.50;5194456;28;20026;-93
2021/12/28 08:39:04;;;;;;;3.60;3.40;;;;;;;6.73;100.00;98893.16;5194039;28;20168;-91
2021/12/28 08:41:35;;;;;;;3.95;3.60;;;;;;;7.62;100.00;99026.19;5193702;28;20483;-92
2021/12/28 08:44:05;;;;;;;5.30;4.80;;;;;;;8.21;100.00;99118.41;5193139;28;20025;-92
2021/12/28 08:46:37;;;;;;;4.22;4.03;;;;;;;8.85;100.00;99200.69;5193600;28;20040;-91
2021/12/28 08:49:08;;;;;;;5.18;4.88;;;;;;;8.21;100.00;99092.31;5194412;28;20128;-91
2021/12/28 08:51:39;;;;;;;3.85;3.55;;;;;;;8.51;100.00;99165.78;5194980;28;20049;-91
2021/12/28 08:54:10;;;;;;;3.75;3.53;;;;;;;8.91;100.00;99210.31;5194427;28;20053;-91
2021/12/28 08:56:40;;;;;;;3.67;3.47;;;;;;;7.52;100.00;99017.41;5194929;28;20033;-91
2021/12/28 08:59:11;;;;;;;3.80;3.60;;;;;;;8.93;100.00;99202.75;5194132;28;20029;-92
2021/12/28 09:01:42;;;;;;;4.90;3.42;;;;;;;8.96;100.00;99191.41;5194912;28;20022;-92
2021/12/28 09:04:12;;;;;;;4.53;4.07;;;;;;;8.61;100.00;99139.56;5195579;28;20029;-90
2021/12/28 09:06:44;;;;;;;3.70;3.50;;;;;;;8.81;100.00;99162.78;5194634;28;20041;-92
2021/12/28 09:09:18;;;;;;;9.10;4.30;;;;;;;9.01;100.00;99194.03;5194405;28;20106;-93
2021/12/28 09:11:48;;;;;;;3.63;3.42;;;;;;;8.09;100.00;99040.81;5196835;28;20057;-91
2021/12/28 09:17:57;;;;;;;3.33;3.22;;;;;;;6.84;100.00;98888.53;5197706;28;20052;-94
2021/12/28 09:20:29;;;;;;;4.53;4.32;;;;;;;7.02;100.00;98861.03;5145834;28;20042;-92
2021/12/28 09:23:00;;;;;;;4.00;3.78;;;;;;;7.43;100.00;98917.84;5195146;28;20029;-93
2021/12/28 09:25:31;;;;;;;4.43;4.10;;;;;;;6.75;100.00;98822.06;5194058;28;20030;-92
2021/12/28 09:28:01;;;;;;;3.50;3.30;;;;;;;9.02;100.00;99190.25;5194008;28;20113;-91
2021/12/28 09:30:35;;;;;;;3.80;3.55;;;;;;;6.93;100.00;98839.34;5194488;28;20034;-92
2021/12/28 09:33:06;;;;;;;4.22;4.03;;;;;;;7.89;100.00;98985.38;5194485;28;20026;-91
2021/12/28 09:35:37;;;;;;;4.80;4.43;;;;;;;8.23;100.00;99000.63;5195756;28;20025;-92
2021/12/28 09:38:13;;;;;;;4.07;3.78;;;;;;;8.63;100.00;99058.56;5195488;28;20026;-93
2021/12/28 09:40:44;;;;;;;5.10;4.68;;;;;;;8.89;100.00;99088.66;5196924;28;20026;-94
2021/12/28 09:43:14;;;;;;;4.50;4.22;;;;;;;7.18;100.00;98827.63;5195673;28;20036;-92
2021/12/28 09:45:45;;;;;;;3.75;3.55;;;;;;;8.05;100.00;98965.31;5193445;28;20057;-91
2021/12/28 09:48:15;;;;;;;5.85;3.65;;;;;;;8.63;100.00;99040.53;5193770;28;20026;-92
2021/12/28 09:50:46;;;;;;;3.38;3.17;;;;;;;8.60;100.00;99032.25;5193543;28;20097;-91
2021/12/28 09:53:16;;;;;;;4.03;3.83;;;;;;;8.12;100.00;98959.59;5194394;28;20044;-90
2021/12/28 09:55:47;;;;;;;8.65;4.45;;;;;;;9.07;100.00;99077.13;5194123;28;20111;-92
2021/12/28 09:58:17;;;;;;;3.13;3.03;;;;;;;9.42;100.00;99135.91;5193429;28;20107;-91
2021/12/28 10:00:48;;;;;;;3.40;3.20;;;;;;;8.93;100.00;99062.78;5193635;28;20376;-92
2021/12/28 10:03:18;;;;;;;2.83;2.72;;;;;;;9.37;100.00;99111.72;5195109;28;20021;-93
2021/12/28 10:05:49;;;;;;;4.18;3.83;;;;;;;8.93;100.00;99035.88;5194015;28;20029;-92
2021/12/28 10:08:24;;;;;;;4.22;3.92;;;;;;;9.38;100.00;99109.81;5193430;28;20476;-91
2021/12/28 10:10:57;;;;;;;3.03;2.90;;;;;;;9.53;100.00;99146.56;5194531;28;20022;-92
2021/12/28 10:13:29;;;;;;;3.40;3.25;;;;;;;8.71;100.00;98998.72;5195409;28;20026;-93
2021/12/28 10:16:00;;;;;;;4.10;3.80;;;;;;;9.50;100.00;99126.38;5195393;28;20058;-93
2021/12/28 10:18:30;;;;;;;2.95;2.85;;;;;;;8.96;100.00;99056.78;5195944;28;20044;-92
2021/12/28 10:21:03;;;;;;;3.22;3.05;;;;;;;8.26;100.00;98914.00;5197614;28;20029;-93
2021/12/28 10:23:34;;;;;;;3.35;3.17;;;;;;;8.48;100.00;98969.97;5196569;28;20105;-93
2021/12/28 10:26:07;;;;;;;3.17;3.08;;;;;;;7.54;100.00;98830.72;5197001;28;20033;-93
2021/12/28 10:28:41;;;;;;;2.42;2.33;;;;;;;8.28;100.00;98963.72;5199413;28;20026;-93
2021/12/28 10:31:22;;;;;;;4.88;3.08;;;;;;;7.76;100.00;98878.56;5201596;28;20029;-92
2021/12/28 10:33:57;;;;;;;2.72;2.25;;;;;;;7.61;100.00;98808.88;5199221;28;20641;-92
2021/12/28 10:36:33;;;;;;;3.30;3.10;;;;;;;7.60;100.00;98812.66;5198654;28;20053;-93
2021/12/28 10:39:06;;;;;;;2.95;2.85;;;;;;;8.51;100.00;98948.66;5199018;28;20029;-93
2021/12/28 10:41:42;;;;;;;3.90;2.45;;;;;;;7.53;100.00;98804.13;5200955;28;20029;-92
2021/12/28 10:44:12;;;;;;;4.00;3.50;;;;;;;8.28;100.00;98944.09;5200602;28;20310;-94
2021/12/28 10:46:43;;;;;;;2.92;2.60;;;;;;;8.85;100.00;99001.50;5202121;28;20054;-92
2021/12/28 10:49:14;;;;;;;1.80;1.80;;;;;;;7.86;100.00;98870.38;5200197;28;20034;-93
2021/12/28 10:51:46;;;;;;;3.78;3.13;;;;;;;7.54;100.00;98816.47;5201054;28;20026;-93
2021/12/28 10:54:16;;;;;;;4.97;2.65;;;;;;;7.74;100.00;98870.00;5202433;28;20032;-92
2021/12/28 10:56:47;;;;;;;3.08;2.83;;;;;;;9.34;100.00;99090.75;5201750;28;20025;-92
2021/12/28 10:59:23;;;;;;;3.17;3.00;;;;;;;7.57;100.00;98830.13;5200872;28;20450;-93
2021/12/28 11:01:54;;;;;;;6.43;3.10;;;;;;;8.28;100.00;98987.13;5197921;28;20033;-91
2021/12/28 11:04:32;;;;;;;2.80;2.70;;;;;;;9.36;100.00;99139.75;5203850;28;20026;-93
2021/12/28 11:07:07;;;;;;;3.60;2.85;;;;;;;8.59;100.00;98991.06;5199184;28;20101;-93
2021/12/28 11:09:47;;;;;;;7.72;4.32;;;;;;;9.21;100.00;99113.03;5245251;22;20048;-62
2021/12/28 11:12:17;;;;;;;12.68;3.65;;;;;;;9.13;100.00;99127.94;5216084;28;20111;-62
2021/12/28 11:14:49;;;;;;;7.53;4.20;;;;;;;9.11;100.00;99107.75;5226506;28;20175;-63
2021/12/28 11:17:30;;;;;;;8.18;4.70;;;;;;;9.07;100.00;99122.88;5226625;28;20492;-63
2021/12/28 11:20:01;;;;;;;9.90;4.38;;;;;;;9.06;100.00;99121.28;5226551;28;20036;-64
2021/12/28 11:22:31;;;;;;;14.70;6.07;;;;;;;9.03;100.00;99111.91;5226443;28;20021;-64
2021/12/28 11:25:15;;;;;;;10.95;6.00;;;;;;;8.86;100.00;99100.00;5225917;28;20035;-63
2021/12/28 11:27:46;;;;;;;19.77;6.82;;;;;;;8.91;100.00;99129.56;5226275;28;20463;-63
2021/12/28 11:30:17;;;;;;;10.70;6.10;;;;;;;8.95;100.00;99104.44;5227333;28;20104;-63
2021/12/28 11:33:07;;;;;;;13.95;7.03;;;;;;;8.97;100.00;99113.03;5226167;28;20090;-63
2021/12/28 11:35:38;;;;;;;24.42;7.18;;;;;;;8.99;100.00;99126.22;5226084;28;20017;-63
2021/12/28 11:38:08;;;;;;;28.50;9.32;;;;;;;8.96;100.00;99106.06;5221214;28;20025;-63
2021/12/28 11:40:39;;;;;;;21.77;8.48;;;;;;;9.02;100.00;99114.88;5205988;28;20034;-63
2021/12/28 11:43:10;;;;;;;22.60;10.02;;;;;;;9.05;100.00;99117.00;5205984;28;20029;-64
2021/12/28 11:45:40;;;;;;;24.17;8.02;;;;;;;8.98;100.00;99124.59;5205880;28;20057;-63
2021/12/28 11:48:11;;;;;;;30.35;9.48;;;;;;;8.98;100.00;99120.03;5205819;28;20017;-63
2021/12/28 11:50:41;;;;;;;21.15;8.60;;;;;;;9.00;100.00;99122.44;5205688;28;20036;-64
2021/12/28 11:53:14;;;;;;;31.83;11.43;;;;;;;9.02;100.00;99123.75;5205883;28;20083;-65
2021/12/28 11:55:45;;;;;;;23.48;7.50;;;;;;;9.05;100.00;99127.75;5205821;28;20087;-64